createdAt,value
2018-06-21T00:00:12.984Z,19.60
2018-06-21T00:02:41.368Z,19.10
2018-06-21T00:05:09.952Z,18.63
2018-06-21T00:07:38.539Z,18.23
2018-06-21T00:10:06.911Z,18.67
2018-06-21T00:12:35.290Z,18.57
2018-06-21T00:15:03.880Z,18.37
2018-06-21T00:17:32.457Z,18.57
2018-06-21T00:20:01.040Z,17.80
2018-06-21T00:22:29.624Z,18.37
2018-06-21T00:24:57.999Z,18.10
2018-06-21T00:27:26.588Z,17.83
2018-06-21T00:29:55.167Z,18.07
2018-06-21T00:32:23.749Z,17.13
2018-06-21T00:34:52.231Z,16.73
2018-06-21T00:37:20.711Z,18.00
2018-06-21T00:39:49.397Z,18.77
2018-06-21T00:42:17.893Z,17.87
2018-06-21T00:44:46.142Z,16.80
2018-06-21T00:47:14.538Z,17.83
2018-06-21T00:49:43.126Z,17.60
2018-06-21T00:52:11.595Z,17.57
2018-06-21T00:54:40.075Z,18.20
2018-06-21T00:57:08.662Z,17.53
2018-06-21T00:59:37.244Z,18.37
2018-06-21T01:02:05.618Z,17.10
2018-06-21T01:04:34.200Z,17.70
2018-06-21T01:07:02.785Z,17.63
2018-06-21T01:09:31.368Z,18.53
2018-06-21T01:11:59.849Z,17.53
2018-06-21T01:14:28.432Z,18.63
2018-06-21T01:16:56.912Z,17.70
2018-06-21T01:19:25.497Z,18.27
2018-06-21T01:21:53.888Z,18.67
2018-06-21T01:24:23.380Z,18.30
2018-06-21T01:26:51.854Z,18.57
2018-06-21T01:29:20.448Z,18.10
2018-06-21T01:31:49.024Z,17.80
2018-06-21T01:34:17.508Z,18.43
2018-06-21T01:36:46.087Z,17.87
2018-06-21T01:39:14.671Z,18.73
2018-06-21T01:41:43.150Z,18.93
2018-06-21T01:44:11.737Z,17.47
2018-06-21T01:46:40.127Z,18.60
2018-06-21T01:49:08.718Z,17.53
2018-06-21T01:51:37.478Z,18.33
2018-06-21T01:54:06.169Z,17.90
2018-06-21T01:56:34.750Z,19.07
2018-06-21T01:59:03.251Z,18.60
2018-06-21T02:01:31.814Z,17.40
2018-06-21T02:04:00.500Z,19.17
2018-06-21T02:06:29.070Z,17.17
2018-06-21T02:08:57.563Z,18.37
2018-06-21T02:11:26.047Z,17.30
2018-06-21T02:13:54.630Z,18.77
2018-06-21T02:16:23.107Z,18.67
2018-06-21T02:18:51.523Z,17.63
2018-06-21T02:21:20.072Z,18.67
2018-06-21T02:23:48.652Z,18.23
2018-06-21T02:26:16.946Z,20.37
2018-06-21T02:28:45.613Z,18.90
2018-06-21T02:31:14.097Z,19.13
2018-06-21T02:33:42.582Z,18.97
2018-06-21T02:36:11.159Z,19.17
2018-06-21T02:38:39.740Z,20.33
2018-06-21T02:41:07.923Z,18.63
2018-06-21T02:43:36.803Z,18.47
2018-06-21T02:46:05.303Z,19.97
2018-06-21T02:48:33.769Z,21.20
2018-06-21T02:51:02.449Z,20.37
2018-06-21T02:53:31.032Z,21.73
2018-06-21T02:55:59.720Z,23.27
2018-06-21T02:58:28.173Z,22.87
2018-06-21T03:00:56.760Z,23.23
2018-06-21T03:03:25.469Z,23.73
2018-06-21T03:05:53.953Z,23.57
2018-06-21T03:08:22.533Z,24.03
2018-06-21T03:10:51.012Z,24.33
2018-06-21T03:13:19.594Z,24.27
2018-06-21T03:15:48.177Z,24.03
2018-06-21T03:18:16.761Z,22.50
2018-06-21T03:20:45.250Z,23.73
2018-06-21T03:23:13.773Z,22.70
2018-06-21T03:25:42.066Z,21.13
2018-06-21T03:28:10.684Z,21.53
2018-06-21T03:30:39.171Z,20.63
2018-06-21T03:33:07.747Z,20.10
2018-06-21T03:35:36.335Z,21.10
2018-06-21T03:38:04.702Z,20.20
2018-06-21T03:40:33.289Z,19.43
2018-06-21T03:43:01.678Z,18.87
2018-06-21T03:45:30.079Z,19.73
2018-06-21T03:47:58.633Z,19.03
2018-06-21T03:50:27.415Z,18.27
2018-06-21T03:52:56.005Z,18.53
2018-06-21T03:55:24.586Z,16.83
2018-06-21T03:57:53.061Z,17.50
2018-06-21T04:00:21.544Z,17.77
2018-06-21T04:02:50.075Z,18.13
2018-06-21T04:05:18.529Z,17.93
2018-06-21T04:07:47.088Z,18.00
2018-06-21T04:10:15.674Z,18.70
2018-06-21T04:12:44.356Z,18.37
2018-06-21T04:15:12.762Z,18.70
2018-06-21T04:17:41.128Z,19.10
2018-06-21T04:20:09.694Z,20.37
2018-06-21T04:22:38.278Z,18.57
2018-06-21T04:25:06.651Z,19.50
2018-06-21T04:27:35.240Z,19.30
2018-06-21T04:30:03.822Z,18.67
2018-06-21T04:32:32.405Z,19.03
2018-06-21T04:35:00.988Z,19.90
2018-06-21T04:37:29.462Z,19.92
2018-06-21T04:39:58.472Z,18.27
2018-06-21T04:42:26.944Z,17.73
2018-06-21T04:44:55.628Z,20.03
2018-06-21T04:47:24.024Z,17.60
2018-06-21T04:49:52.594Z,17.43
2018-06-21T04:52:21.068Z,17.53
2018-06-21T04:54:49.651Z,17.27
2018-06-21T04:57:18.134Z,16.70
2018-06-21T04:59:46.715Z,16.60
2018-06-21T05:02:15.114Z,17.47
2018-06-21T05:04:43.983Z,18.47
2018-06-21T05:07:12.530Z,18.27
2018-06-21T05:09:41.009Z,17.20
2018-06-21T05:12:09.429Z,16.70
2018-06-21T05:14:38.012Z,16.93
2018-06-21T05:17:14.589Z,17.80
2018-06-21T05:20:14.441Z,17.93
2018-06-21T05:22:42.888Z,17.00
2018-06-21T05:25:11.564Z,17.60
2018-06-21T05:27:42.814Z,18.73
2018-06-21T05:30:11.797Z,18.00
2018-06-21T05:32:40.482Z,16.80
2018-06-21T05:35:09.065Z,17.13
2018-06-21T05:37:37.647Z,18.07
2018-06-21T05:40:06.233Z,22.63
2018-06-21T05:42:34.706Z,23.57
2018-06-21T05:45:03.191Z,16.17
2018-06-21T05:47:31.776Z,16.80
2018-06-21T05:50:00.304Z,16.30
2018-06-21T05:52:29.082Z,16.90
2018-06-21T05:54:57.628Z,15.10
2018-06-21T05:57:26.421Z,16.70
2018-06-21T05:59:54.850Z,17.50
2018-06-21T06:02:23.374Z,17.47
2018-06-21T06:04:52.028Z,17.03
2018-06-21T06:07:20.747Z,14.63
2018-06-21T06:09:49.146Z,13.63
2018-06-21T06:12:17.608Z,13.40
2018-06-21T06:14:46.191Z,13.50
2018-06-21T06:17:14.582Z,12.90
2018-06-21T06:19:43.262Z,11.10
2018-06-21T06:22:11.937Z,11.63
2018-06-21T06:24:40.218Z,12.00
2018-06-21T06:27:08.797Z,11.90
2018-06-21T06:29:37.379Z,12.07
2018-06-21T06:32:05.766Z,12.60
2018-06-21T06:34:34.201Z,10.63
2018-06-21T06:37:02.821Z,11.33
2018-06-21T06:39:31.301Z,11.40
2018-06-21T06:41:59.680Z,11.03
2018-06-21T06:44:28.262Z,11.70
2018-06-21T06:46:56.743Z,11.97
2018-06-21T06:49:25.270Z,11.27
2018-06-21T06:51:53.806Z,10.00
2018-06-21T06:54:22.359Z,11.23
2018-06-21T06:56:50.694Z,9.97
2018-06-21T06:59:19.105Z,10.27
2018-06-21T07:01:47.523Z,9.37
2018-06-21T07:04:16.027Z,10.27
2018-06-21T07:06:44.595Z,10.57
2018-06-21T07:09:13.171Z,9.13
2018-06-21T07:11:41.755Z,8.10
2018-06-21T07:14:10.178Z,11.83
2018-06-21T07:16:38.720Z,9.93
2018-06-21T07:19:07.297Z,7.93
2018-06-21T07:21:38.542Z,7.87
2018-06-21T07:24:07.186Z,9.00
2018-06-21T07:26:35.914Z,8.00
2018-06-21T07:29:04.497Z,8.50
2018-06-21T07:31:32.976Z,7.67
2018-06-21T07:34:01.388Z,7.80
2018-06-21T07:36:29.938Z,7.60
2018-06-21T07:38:58.470Z,10.77
2018-06-21T07:41:27.005Z,8.33
2018-06-21T07:43:55.584Z,8.70
2018-06-21T07:46:24.161Z,8.10
2018-06-21T07:48:52.566Z,7.33
2018-06-21T07:51:21.141Z,7.77
2018-06-21T07:53:49.735Z,8.13
2018-06-21T07:56:18.193Z,8.23
2018-06-21T07:58:46.619Z,8.33
2018-06-21T08:01:15.152Z,8.77
2018-06-21T08:03:43.736Z,9.97
2018-06-21T08:06:12.426Z,8.57
2018-06-21T08:08:40.904Z,7.47
2018-06-21T08:11:09.486Z,7.43
2018-06-21T08:13:37.967Z,8.57
2018-06-21T08:16:06.549Z,8.33
2018-06-21T08:18:35.130Z,8.60
2018-06-21T08:21:03.617Z,8.40
2018-06-21T08:23:32.300Z,8.63
2018-06-21T08:26:00.980Z,8.37
2018-06-21T08:28:29.467Z,9.40
2018-06-21T08:30:58.149Z,8.97
2018-06-21T08:33:26.631Z,9.30
2018-06-21T08:35:55.213Z,8.83
2018-06-21T08:38:23.434Z,9.90
2018-06-21T08:40:51.971Z,8.13
2018-06-21T08:43:20.365Z,8.50
2018-06-21T08:45:49.085Z,9.53
2018-06-21T08:48:17.613Z,9.10
2018-06-21T08:50:46.206Z,8.67
2018-06-21T08:53:14.780Z,7.90
2018-06-21T08:55:43.569Z,7.70
2018-06-21T08:58:12.355Z,8.73
2018-06-21T09:00:40.845Z,8.10
2018-06-21T09:03:09.420Z,7.87
2018-06-21T09:05:38.002Z,7.87
2018-06-21T09:08:06.502Z,8.37
2018-06-21T09:10:34.867Z,9.03
2018-06-21T09:13:03.341Z,7.97
2018-06-21T09:15:31.926Z,7.50
2018-06-21T09:18:00.401Z,7.57
2018-06-21T09:20:28.885Z,8.67
2018-06-21T09:22:57.471Z,7.53
2018-06-21T09:25:25.947Z,7.87
2018-06-21T09:27:54.429Z,7.73
2018-06-21T09:30:23.118Z,8.03
2018-06-21T09:32:51.698Z,7.93
2018-06-21T09:35:20.181Z,7.80
2018-06-21T09:37:53.985Z,7.30
2018-06-21T09:40:27.761Z,8.07
2018-06-21T09:43:01.392Z,6.87
2018-06-21T09:45:35.198Z,7.23
2018-06-21T09:48:08.900Z,7.20
2018-06-21T09:50:37.326Z,7.67
2018-06-21T09:53:05.762Z,7.97
2018-06-21T09:55:34.340Z,7.67
2018-06-21T09:58:02.922Z,7.70
2018-06-21T10:00:36.829Z,7.20
2018-06-21T10:03:05.318Z,7.60
2018-06-21T10:05:33.898Z,8.00
2018-06-21T10:08:02.275Z,8.03
2018-06-21T10:10:30.854Z,7.70
2018-06-21T10:12:59.351Z,8.20
2018-06-21T10:15:27.925Z,7.90
2018-06-21T10:17:58.342Z,7.23
2018-06-21T10:20:26.872Z,7.00
2018-06-21T10:22:55.716Z,7.93
2018-06-21T10:25:24.637Z,7.27
2018-06-21T10:27:53.193Z,7.07
2018-06-21T10:30:21.766Z,6.30
2018-06-21T10:32:50.354Z,6.50
2018-06-21T10:35:19.039Z,6.63
2018-06-21T10:37:47.627Z,6.60
2018-06-21T10:40:16.115Z,6.83
2018-06-21T10:42:44.590Z,7.07
2018-06-21T10:45:13.168Z,7.33
2018-06-21T10:47:41.649Z,7.73
2018-06-21T10:50:10.039Z,6.97
2018-06-21T10:52:38.711Z,6.23
2018-06-21T10:55:07.295Z,6.53
2018-06-21T10:57:35.782Z,6.27
2018-06-21T11:00:04.568Z,7.07
2018-06-21T11:02:33.060Z,6.93
2018-06-21T11:05:01.528Z,5.90
2018-06-21T11:07:30.057Z,6.63
2018-06-21T11:09:58.586Z,5.97
2018-06-21T11:12:27.072Z,6.03
2018-06-21T11:14:55.476Z,6.40
2018-06-21T11:17:24.134Z,6.27
2018-06-21T11:19:52.713Z,8.67
2018-06-21T11:22:21.190Z,6.90
2018-06-21T11:24:49.706Z,6.17
2018-06-21T11:27:18.172Z,6.07
2018-06-21T11:29:46.739Z,6.57
2018-06-21T11:32:15.133Z,5.80
2018-06-21T11:34:43.921Z,6.73
2018-06-21T11:37:12.487Z,6.43
2018-06-21T11:39:41.073Z,6.40
2018-06-21T11:42:09.553Z,6.27
2018-06-21T11:44:38.133Z,6.37
2018-06-21T11:47:06.716Z,6.57
2018-06-21T11:49:35.196Z,5.87
2018-06-21T11:52:03.586Z,6.13
2018-06-21T11:54:32.161Z,6.97
2018-06-21T11:57:00.843Z,7.20
2018-06-21T11:59:29.063Z,5.93
2018-06-21T12:01:57.601Z,6.23
2018-06-21T12:04:26.081Z,6.47
2018-06-21T12:06:54.665Z,6.53
2018-06-21T12:09:23.063Z,7.30
2018-06-21T12:11:51.628Z,5.97
2018-06-21T12:14:20.210Z,6.33
2018-06-21T12:16:48.626Z,6.47
2018-06-21T12:19:17.176Z,6.47
2018-06-21T12:21:45.754Z,7.33
2018-06-21T12:24:14.230Z,6.30
2018-06-21T12:26:42.712Z,6.67
2018-06-21T12:29:11.297Z,6.40
2018-06-21T12:31:39.776Z,6.63
2018-06-21T12:34:08.256Z,7.27
2018-06-21T12:36:36.840Z,9.33
2018-06-21T12:39:06.754Z,7.30
2018-06-21T12:41:35.232Z,6.53
2018-06-21T12:44:03.925Z,6.70
2018-06-21T12:46:32.502Z,6.37
2018-06-21T12:49:00.870Z,5.93
2018-06-21T12:51:29.465Z,6.87
2018-06-21T12:53:58.047Z,6.37
2018-06-21T12:56:26.554Z,5.47
2018-06-21T12:58:54.983Z,6.83
2018-06-21T13:01:23.594Z,6.57
2018-06-21T13:03:52.284Z,5.93
2018-06-21T13:06:20.860Z,4.90
2018-06-21T13:08:54.591Z,5.23
2018-06-21T13:11:28.571Z,5.53
2018-06-21T13:14:28.081Z,7.00
2018-06-21T13:16:56.466Z,5.00
2018-06-21T13:19:24.881Z,5.47
2018-06-21T13:21:53.420Z,5.27
2018-06-21T13:24:21.794Z,5.57
2018-06-21T13:26:50.210Z,5.30
2018-06-21T13:29:18.655Z,4.70
2018-06-21T13:31:47.342Z,4.70
2018-06-21T13:34:15.945Z,4.77
2018-06-21T13:36:44.507Z,5.63
2018-06-21T13:39:12.994Z,4.93
2018-06-21T13:41:41.570Z,4.87
2018-06-21T13:44:10.154Z,4.60
2018-06-21T13:46:38.736Z,4.77
2018-06-21T13:49:07.321Z,5.60
2018-06-21T13:51:35.791Z,4.50
2018-06-21T13:54:04.190Z,5.03
2018-06-21T13:56:32.761Z,4.63
2018-06-21T13:59:01.239Z,4.70
2018-06-21T14:01:29.618Z,4.50
2018-06-21T14:03:58.088Z,4.43
2018-06-21T14:06:26.579Z,4.17
2018-06-21T14:08:55.098Z,4.60
2018-06-21T14:11:23.645Z,4.43
2018-06-21T14:13:52.266Z,4.37
2018-06-21T14:16:20.707Z,4.43
2018-06-21T14:18:49.292Z,4.40
2018-06-21T14:21:17.703Z,4.70
2018-06-21T14:23:46.252Z,5.00
2018-06-21T14:26:14.630Z,4.73
2018-06-21T14:28:43.215Z,4.70
2018-06-21T14:31:11.693Z,4.60
2018-06-21T14:33:40.176Z,4.70
2018-06-21T14:36:08.566Z,5.00
2018-06-21T14:38:37.137Z,4.83
2018-06-21T14:41:05.719Z,4.90
2018-06-21T14:43:34.204Z,4.47
2018-06-21T14:46:02.782Z,4.50
2018-06-21T14:48:31.468Z,4.97
2018-06-21T14:51:00.864Z,4.17
2018-06-21T14:53:29.395Z,4.37
2018-06-21T14:55:58.138Z,4.47
2018-06-21T14:58:26.721Z,4.07
2018-06-21T15:00:55.201Z,3.90
2018-06-21T15:03:23.579Z,3.60
2018-06-21T15:05:52.162Z,4.20
2018-06-21T15:08:20.500Z,4.10
2018-06-21T15:10:49.021Z,5.03
2018-06-21T15:13:17.404Z,4.93
2018-06-21T15:15:45.880Z,4.40
2018-06-21T15:18:14.473Z,5.00
2018-06-21T15:20:42.943Z,5.00
2018-06-21T15:23:11.526Z,8.00
2018-06-21T15:25:40.008Z,6.53
2018-06-21T15:28:08.495Z,5.00
2018-06-21T15:30:37.073Z,5.10
2018-06-21T15:33:05.654Z,4.73
2018-06-21T15:35:34.134Z,4.93
2018-06-21T15:38:02.610Z,4.80
2018-06-21T15:40:31.300Z,9.67
2018-06-21T15:42:59.779Z,11.03
2018-06-21T15:45:28.254Z,10.70
2018-06-21T15:47:56.743Z,10.60
2018-06-21T15:50:25.323Z,9.67
2018-06-21T15:52:53.706Z,9.93
2018-06-21T15:55:22.087Z,7.83
2018-06-21T15:57:50.665Z,10.07
2018-06-21T16:00:20.171Z,9.43
2018-06-21T16:02:48.750Z,9.63
2018-06-21T16:05:17.233Z,8.70
2018-06-21T16:07:45.814Z,9.13
2018-06-21T16:10:14.292Z,10.13
2018-06-21T16:12:42.877Z,10.17
2018-06-21T16:15:11.460Z,10.17
2018-06-21T16:17:39.943Z,9.40
2018-06-21T16:20:08.421Z,6.00
2018-06-21T16:22:37.007Z,5.67
2018-06-21T16:25:05.483Z,6.17
2018-06-21T16:27:33.916Z,4.67
2018-06-21T16:30:02.446Z,3.70
2018-06-21T16:32:30.930Z,3.53
2018-06-21T16:34:59.509Z,3.57
2018-06-21T16:37:28.092Z,3.93
2018-06-21T16:39:56.573Z,4.33
2018-06-21T16:42:25.182Z,4.97
2018-06-21T16:44:53.635Z,5.70
2018-06-21T16:47:22.226Z,5.83
2018-06-21T16:49:50.609Z,6.43
2018-06-21T16:52:18.873Z,7.90
2018-06-21T16:54:47.457Z,7.50
2018-06-21T16:57:16.142Z,6.37
2018-06-21T16:59:44.520Z,7.10
2018-06-21T17:02:13.163Z,6.60
2018-06-21T17:04:41.789Z,5.80
2018-06-21T17:07:10.278Z,7.17
2018-06-21T17:09:38.746Z,5.87
2018-06-21T17:12:07.139Z,5.27
2018-06-21T17:14:35.710Z,5.07
2018-06-21T17:17:04.298Z,4.23
2018-06-21T17:19:32.643Z,4.00
2018-06-21T17:22:01.152Z,4.23
2018-06-21T17:24:29.735Z,3.87
2018-06-21T17:26:58.113Z,4.40
2018-06-21T17:29:26.695Z,4.30
2018-06-21T17:31:55.177Z,4.00
2018-06-21T17:34:23.557Z,4.20
2018-06-21T17:36:52.276Z,3.97
2018-06-21T17:39:20.823Z,3.87
2018-06-21T17:41:49.404Z,4.07
2018-06-21T17:44:17.783Z,4.60
2018-06-21T17:46:46.370Z,4.53
2018-06-21T17:49:14.852Z,5.10
2018-06-21T17:51:43.329Z,4.87
2018-06-21T17:54:11.917Z,4.80
2018-06-21T17:56:40.392Z,5.17
2018-06-21T17:59:08.976Z,5.27
2018-06-21T18:01:37.565Z,4.97
2018-06-21T18:04:06.039Z,5.00
2018-06-21T18:06:34.732Z,5.33
2018-06-21T18:09:03.307Z,5.97
2018-06-21T18:11:31.990Z,6.10
2018-06-21T18:14:00.577Z,5.67
2018-06-21T18:16:29.168Z,6.43
2018-06-21T18:18:57.649Z,5.83
2018-06-21T18:21:26.121Z,5.73
2018-06-21T18:23:54.806Z,7.30
2018-06-21T18:26:23.283Z,7.77
2018-06-21T18:28:51.902Z,6.23
2018-06-21T18:31:20.355Z,6.80
2018-06-21T18:33:48.746Z,6.43
2018-06-21T18:36:17.108Z,6.43
2018-06-21T18:38:45.688Z,5.73
2018-06-21T18:41:14.373Z,5.83
2018-06-21T18:43:42.853Z,5.73
2018-06-21T18:46:11.232Z,6.00
2018-06-21T18:48:39.819Z,5.97
2018-06-21T18:51:08.290Z,6.43
2018-06-21T18:53:36.878Z,6.20
2018-06-21T18:56:05.399Z,5.97
2018-06-21T18:58:33.737Z,5.83
2018-06-21T19:01:02.143Z,7.53
2018-06-21T19:03:30.800Z,7.20
2018-06-21T19:06:00.815Z,6.93
2018-06-21T19:08:34.450Z,6.90
2018-06-21T19:11:08.736Z,8.73
2018-06-21T19:13:41.619Z,16.47
2018-06-21T19:16:10.119Z,21.67
2018-06-21T19:18:38.682Z,12.23
2018-06-21T19:21:07.470Z,13.87
2018-06-21T19:23:36.050Z,13.80
2018-06-21T19:26:04.790Z,14.55
2018-06-21T19:28:33.321Z,11.70
2018-06-21T19:31:02.177Z,7.93
2018-06-21T19:33:30.794Z,6.67
2018-06-21T19:35:59.377Z,5.57
2018-06-21T19:38:28.880Z,4.87
2018-06-21T19:40:57.471Z,5.07
2018-06-21T19:43:26.048Z,6.33
2018-06-21T19:45:54.631Z,6.00
2018-06-21T19:48:23.020Z,6.17
2018-06-21T19:50:51.593Z,5.80
2018-06-21T19:53:20.074Z,9.03
2018-06-21T19:55:48.455Z,9.20
2018-06-21T19:58:17.032Z,9.40
2018-06-21T20:00:45.514Z,15.17
2018-06-21T20:03:14.149Z,15.80
2018-06-21T20:05:42.590Z,19.90
2018-06-21T20:08:10.966Z,13.10
2018-06-21T20:10:39.375Z,10.90
2018-06-21T20:13:09.810Z,8.67
2018-06-21T20:15:43.718Z,7.27
2018-06-21T20:18:12.253Z,8.00
2018-06-21T20:20:40.730Z,10.70
2018-06-21T20:23:09.504Z,8.67
2018-06-21T20:25:38.003Z,7.40
2018-06-21T20:28:06.480Z,5.47
2018-06-21T20:30:34.874Z,6.00
2018-06-21T20:33:03.546Z,5.00
2018-06-21T20:35:32.024Z,5.63
2018-06-21T20:38:00.607Z,5.70
2018-06-21T20:40:29.094Z,5.57
2018-06-21T20:42:57.486Z,5.23
2018-06-21T20:45:26.047Z,4.60
2018-06-21T20:47:54.940Z,4.77
2018-06-21T20:50:23.474Z,5.63
2018-06-21T20:52:52.002Z,5.60
2018-06-21T20:55:20.381Z,4.83
2018-06-21T20:57:48.962Z,5.87
2018-06-21T21:00:17.547Z,5.47
2018-06-21T21:02:46.130Z,5.30
2018-06-21T21:05:15.536Z,5.53
2018-06-21T21:07:45.009Z,4.90
2018-06-21T21:10:14.851Z,5.10
2018-06-21T21:12:43.222Z,5.03
2018-06-21T21:15:12.637Z,4.80
2018-06-21T21:17:41.066Z,4.80
2018-06-21T21:20:09.906Z,5.13
2018-06-21T21:22:38.989Z,4.83
2018-06-21T21:25:07.471Z,4.47
2018-06-21T21:27:36.058Z,5.17
2018-06-21T21:30:06.207Z,4.90
2018-06-21T21:32:34.764Z,4.90
2018-06-21T21:35:03.441Z,5.20
2018-06-21T21:37:31.833Z,4.73
2018-06-21T21:40:01.588Z,5.27
2018-06-21T21:42:31.074Z,5.00
2018-06-21T21:44:59.720Z,4.87
2018-06-21T21:47:28.205Z,5.33
2018-06-21T21:49:56.886Z,5.23
2018-06-21T21:52:25.570Z,5.53
2018-06-21T21:54:54.260Z,5.27
2018-06-21T21:57:22.659Z,5.13
2018-06-21T21:59:51.125Z,4.93
2018-06-21T22:02:19.903Z,4.87
2018-06-21T22:04:48.486Z,5.23
2018-06-21T22:07:16.966Z,5.07
2018-06-21T22:09:45.857Z,6.43
2018-06-21T22:12:14.231Z,4.90
2018-06-21T22:14:42.806Z,5.40
2018-06-21T22:17:11.402Z,5.03
2018-06-21T22:19:39.983Z,4.53
2018-06-21T22:22:08.566Z,5.00
2018-06-21T22:24:37.048Z,4.67
2018-06-21T22:27:05.632Z,4.70
2018-06-21T22:29:34.213Z,4.63
2018-06-21T22:32:02.590Z,4.90
2018-06-21T22:34:31.278Z,4.67
2018-06-21T22:36:59.757Z,4.67
2018-06-21T22:39:28.248Z,4.60
2018-06-21T22:41:56.821Z,4.83
2018-06-21T22:44:25.406Z,4.80
2018-06-21T22:46:54.126Z,4.33
2018-06-21T22:49:22.672Z,4.97
2018-06-21T22:51:51.255Z,4.87
2018-06-21T22:54:19.632Z,5.83
2018-06-21T22:56:48.108Z,5.23
2018-06-21T22:59:16.596Z,5.10
2018-06-21T23:01:45.281Z,5.30
2018-06-21T23:04:13.769Z,4.13
2018-06-21T23:06:42.159Z,4.73
2018-06-21T23:09:10.618Z,5.20
2018-06-21T23:11:39.305Z,4.70
2018-06-21T23:14:07.886Z,4.97
2018-06-21T23:16:36.261Z,5.37
2018-06-21T23:19:10.378Z,4.73
2018-06-21T23:21:38.859Z,4.93
2018-06-21T23:24:07.441Z,5.00
2018-06-21T23:26:36.025Z,4.50
2018-06-21T23:29:04.503Z,4.50
2018-06-21T23:31:33.218Z,4.53
2018-06-21T23:34:01.810Z,5.30
2018-06-21T23:36:30.356Z,4.57
2018-06-21T23:38:58.839Z,5.00
2018-06-21T23:41:27.420Z,5.37
2018-06-21T23:43:56.206Z,4.67
2018-06-21T23:46:24.688Z,5.13
2018-06-21T23:48:53.121Z,4.80
2018-06-21T23:51:21.546Z,4.50
2018-06-21T23:53:50.034Z,5.30
2018-06-21T23:56:18.506Z,4.47
2018-06-21T23:58:47.097Z,4.30
